sensor_id;sensor_type;location;lat;lon;timestamp;pressure;altitude;pressure_sealevel;temperature;humidity
29359;BME280;16347;53.232;6.556;2023-02-16T00:01:24;102249.47;;;8.98;60.68
29359;BME280;16347;53.232;6.556;2023-02-16T00:03:56;102242.44;;;8.95;60.83
29359;BME280;16347;53.232;6.556;2023-02-16T00:06:27;102240.19;;;8.89;61.25
29359;BME280;16347;53.232;6.556;2023-02-16T00:08:55;102235.28;;;8.94;61.17
29359;BME280;16347;53.232;6.556;2023-02-16T00:11:28;102238.34;;;8.90;61.17
29359;BME280;16347;53.232;6.556;2023-02-16T00:14:15;102238.75;;;8.96;61.28
29359;BME280;16347;53.232;6.556;2023-02-16T00:16:43;102228.19;;;9.04;60.70
29359;BME280;16347;53.232;6.556;2023-02-16T00:19:17;102223.84;;;9.02;60.39
29359;BME280;16347;53.232;6.556;2023-02-16T00:21:49;102238.84;;;8.95;61.03
29359;BME280;16347;53.232;6.556;2023-02-16T00:24:18;102234.41;;;8.94;60.59
29359;BME280;16347;53.232;6.556;2023-02-16T00:26:47;102230.88;;;9.04;60.40
29359;BME280;16347;53.232;6.556;2023-02-16T00:29:19;102233.09;;;8.99;60.30
29359;BME280;16347;53.232;6.556;2023-02-16T00:31:50;102228.19;;;9.04;60.68
29359;BME280;16347;53.232;6.556;2023-02-16T00:34:31;102231.44;;;9.09;60.87
29359;BME280;16347;53.232;6.556;2023-02-16T00:37:02;102230.41;;;8.87;60.83
29359;BME280;16347;53.232;6.556;2023-02-16T00:39:31;102222.81;;;8.92;60.69
29359;BME280;16347;53.232;6.556;2023-02-16T00:42:00;102220.44;;;8.87;61.01
29359;BME280;16347;53.232;6.556;2023-02-16T00:44:33;102218.91;;;8.83;61.00
29359;BME280;16347;53.232;6.556;2023-02-16T00:47:12;102217.09;;;8.84;61.40
29359;BME280;16347;53.232;6.556;2023-02-16T00:49:44;102227.75;;;8.74;61.22
29359;BME280;16347;53.232;6.556;2023-02-16T00:52:31;102226.84;;;8.86;61.71
29359;BME280;16347;53.232;6.556;2023-02-16T00:55:01;102234.22;;;8.84;60.88
29359;BME280;16347;53.232;6.556;2023-02-16T00:57:31;102233.59;;;8.81;61.47
29359;BME280;16347;53.232;6.556;2023-02-16T01:00:03;102229.59;;;8.73;61.58
29359;BME280;16347;53.232;6.556;2023-02-16T01:02:32;102239.41;;;8.87;60.95
29359;BME280;16347;53.232;6.556;2023-02-16T01:05:00;102225.53;;;8.92;60.83
29359;BME280;16347;53.232;6.556;2023-02-16T01:07:31;102227.81;;;8.85;61.28
29359;BME280;16347;53.232;6.556;2023-02-16T01:10:17;102224.41;;;8.94;60.71
29359;BME280;16347;53.232;6.556;2023-02-16T01:13:03;102229.56;;;8.86;60.93
29359;BME280;16347;53.232;6.556;2023-02-16T01:15:33;102221.94;;;8.91;60.70
29359;BME280;16347;53.232;6.556;2023-02-16T01:18:02;102215.94;;;8.75;61.18
29359;BME280;16347;53.232;6.556;2023-02-16T01:20:32;102208.53;;;8.77;61.02
29359;BME280;16347;53.232;6.556;2023-02-16T01:23:08;102209.97;;;8.70;61.70
29359;BME280;16347;53.232;6.556;2023-02-16T01:25:40;102200.38;;;8.90;61.23
29359;BME280;16347;53.232;6.556;2023-02-16T01:28:16;102199.38;;;8.91;61.21
29359;BME280;16347;53.232;6.556;2023-02-16T01:30:45;102202.22;;;8.89;60.67
29359;BME280;16347;53.232;6.556;2023-02-16T01:33:13;102201.97;;;8.92;60.74
29359;BME280;16347;53.232;6.556;2023-02-16T01:35:41;102203.81;;;8.68;61.60
29359;BME280;16347;53.232;6.556;2023-02-16T01:38:15;102207.56;;;8.78;61.67
29359;BME280;16347;53.232;6.556;2023-02-16T01:40:51;102199.19;;;8.81;61.24
29359;BME280;16347;53.232;6.556;2023-02-16T01:43:26;102190.25;;;8.68;61.51
29359;BME280;16347;53.232;6.556;2023-02-16T01:45:58;102190.56;;;8.76;61.57
29359;BME280;16347;53.232;6.556;2023-02-16T01:48:30;102181.56;;;8.75;61.59
29359;BME280;16347;53.232;6.556;2023-02-16T01:51:05;102180.38;;;8.67;61.50
29359;BME280;16347;53.232;6.556;2023-02-16T01:53:39;102183.63;;;8.72;61.30
29359;BME280;16347;53.232;6.556;2023-02-16T01:56:29;102177.66;;;8.67;62.42
29359;BME280;16347;53.232;6.556;2023-02-16T01:59:02;102185.63;;;8.57;62.12
29359;BME280;16347;53.232;6.556;2023-02-16T02:01:38;102183.53;;;8.61;62.09
29359;BME280;16347;53.232;6.556;2023-02-16T02:04:15;102182.81;;;8.59;62.10
29359;BME280;16347;53.232;6.556;2023-02-16T02:07:05;102169.69;;;8.53;62.26
29359;BME280;16347;53.232;6.556;2023-02-16T02:09:38;102172.84;;;8.47;62.17
29359;BME280;16347;53.232;6.556;2023-02-16T02:12:15;102173.06;;;8.44;62.75
29359;BME280;16347;53.232;6.556;2023-02-16T02:14:46;102166.03;;;8.41;62.62
29359;BME280;16347;53.232;6.556;2023-02-16T02:17:18;102161.19;;;8.34;62.75
29359;BME280;16347;53.232;6.556;2023-02-16T02:19:56;102166.78;;;8.43;62.51
29359;BME280;16347;53.232;6.556;2023-02-16T02:29:00;102167.88;;;8.41;62.65
29359;BME280;16347;53.232;6.556;2023-02-16T02:31:44;102161.59;;;8.40;62.81
29359;BME280;16347;53.232;6.556;2023-02-16T02:34:21;102158.47;;;8.34;62.63
29359;BME280;16347;53.232;6.556;2023-02-16T02:36:59;102158.28;;;8.11;63.08
29359;BME280;16347;53.232;6.556;2023-02-16T02:39:35;102152.50;;;8.16;63.05
29359;BME280;16347;53.232;6.556;2023-02-16T02:42:10;102145.59;;;8.12;63.17
29359;BME280;16347;53.232;6.556;2023-02-16T02:44:50;102149.69;;;8.17;62.93
29359;BME280;16347;53.232;6.556;2023-02-16T02:47:20;102149.53;;;7.95;63.27
29359;BME280;16347;53.232;6.556;2023-02-16T02:49:50;102146.03;;;8.06;63.48
29359;BME280;16347;53.232;6.556;2023-02-16T02:52:18;102139.34;;;7.99;63.53
29359;BME280;16347;53.232;6.556;2023-02-16T02:54:47;102146.69;;;7.97;63.96
29359;BME280;16347;53.232;6.556;2023-02-16T02:57:38;102140.84;;;8.15;63.48
29359;BME280;16347;53.232;6.556;2023-02-16T03:00:30;102139.59;;;8.19;62.83
29359;BME280;16347;53.232;6.556;2023-02-16T03:03:12;102133.81;;;8.00;63.39
29359;BME280;16347;53.232;6.556;2023-02-16T03:05:44;102129.03;;;8.04;63.09
29359;BME280;16347;53.232;6.556;2023-02-16T03:08:16;102130.88;;;8.03;63.68
29359;BME280;16347;53.232;6.556;2023-02-16T03:10:48;102119.56;;;8.09;63.51
29359;BME280;16347;53.232;6.556;2023-02-16T03:13:37;102122.09;;;8.12;63.32
29359;BME280;16347;53.232;6.556;2023-02-16T03:16:11;102122.66;;;8.05;63.73
29359;BME280;16347;53.232;6.556;2023-02-16T03:18:40;102115.09;;;8.34;62.90
29359;BME280;16347;53.232;6.556;2023-02-16T03:21:28;102117.09;;;8.19;62.67
29359;BME280;16347;53.232;6.556;2023-02-16T03:24:19;102112.31;;;8.22;62.96
29359;BME280;16347;53.232;6.556;2023-02-16T03:27:05;102111.03;;;8.28;62.92
29359;BME280;16347;53.232;6.556;2023-02-16T03:29:53;102112.59;;;7.94;63.64
29359;BME280;16347;53.232;6.556;2023-02-16T03:32:24;102102.25;;;8.12;63.92
29359;BME280;16347;53.232;6.556;2023-02-16T03:34:52;102109.63;;;8.10;63.42
29359;BME280;16347;53.232;6.556;2023-02-16T03:37:20;102104.59;;;8.16;63.37
29359;BME280;16347;53.232;6.556;2023-02-16T03:39:48;102109.38;;;8.25;63.19
29359;BME280;16347;53.232;6.556;2023-02-16T03:42:35;102109.06;;;8.17;63.89
29359;BME280;16347;53.232;6.556;2023-02-16T03:45:04;102105.66;;;8.26;63.66
29359;BME280;16347;53.232;6.556;2023-02-16T03:47:34;102105.25;;;8.20;63.74
29359;BME280;16347;53.232;6.556;2023-02-16T03:50:03;102107.31;;;8.16;64.06
29359;BME280;16347;53.232;6.556;2023-02-16T03:52:32;102106.34;;;8.17;63.88
29359;BME280;16347;53.232;6.556;2023-02-16T03:55:00;102101.91;;;8.29;63.90
29359;BME280;16347;53.232;6.556;2023-02-16T03:57:28;102113.28;;;8.21;64.23
29359;BME280;16347;53.232;6.556;2023-02-16T03:59:56;102108.38;;;8.26;64.12
29359;BME280;16347;53.232;6.556;2023-02-16T04:02:26;102092.34;;;8.23;63.62
29359;BME280;16347;53.232;6.556;2023-02-16T04:04:56;102107.09;;;8.32;63.82
29359;BME280;16347;53.232;6.556;2023-02-16T04:07:24;102110.88;;;8.30;63.83
29359;BME280;16347;53.232;6.556;2023-02-16T04:09:52;102106.34;;;8.30;64.00
29359;BME280;16347;53.232;6.556;2023-02-16T04:12:20;102107.09;;;8.19;64.21
29359;BME280;16347;53.232;6.556;2023-02-16T04:15:05;102099.09;;;8.18;64.84
29359;BME280;16347;53.232;6.556;2023-02-16T04:17:34;102096.78;;;8.37;64.27
29359;BME280;16347;53.232;6.556;2023-02-16T04:20:04;102097.66;;;8.38;64.10
29359;BME280;16347;53.232;6.556;2023-02-16T04:22:32;102093.75;;;8.42;63.97
29359;BME280;16347;53.232;6.556;2023-02-16T04:25:00;102091.91;;;8.42;63.72
29359;BME280;16347;53.232;6.556;2023-02-16T04:27:28;102090.84;;;8.32;64.17
29359;BME280;16347;53.232;6.556;2023-02-16T04:29:56;102092.31;;;8.36;64.29
29359;BME280;16347;53.232;6.556;2023-02-16T04:32:25;102091.50;;;8.36;64.02
29359;BME280;16347;53.232;6.556;2023-02-16T04:34:53;102092.00;;;8.41;64.13
29359;BME280;16347;53.232;6.556;2023-02-16T04:37:23;102091.66;;;8.45;64.51
29359;BME280;16347;53.232;6.556;2023-02-16T04:39:51;102089.06;;;8.44;64.55
29359;BME280;16347;53.232;6.556;2023-02-16T04:42:19;102091.28;;;8.50;64.46
29359;BME280;16347;53.232;6.556;2023-02-16T04:44:47;102092.94;;;8.52;63.91
29359;BME280;16347;53.232;6.556;2023-02-16T04:47:16;102086.28;;;8.56;64.15
29359;BME280;16347;53.232;6.556;2023-02-16T04:49:44;102096.63;;;8.51;64.54
29359;BME280;16347;53.232;6.556;2023-02-16T04:52:15;102105.94;;;8.47;64.54
29359;BME280;16347;53.232;6.556;2023-02-16T04:54:45;102093.09;;;8.62;64.07
29359;BME280;16347;53.232;6.556;2023-02-16T04:57:13;102097.66;;;8.61;64.07
29359;BME280;16347;53.232;6.556;2023-02-16T04:59:41;102092.34;;;8.60;64.16
29359;BME280;16347;53.232;6.556;2023-02-16T05:02:09;102089.34;;;8.52;64.55
29359;BME280;16347;53.232;6.556;2023-02-16T05:04:37;102086.66;;;8.52;64.51
29359;BME280;16347;53.232;6.556;2023-02-16T05:07:05;102098.16;;;8.43;64.86
29359;BME280;16347;53.232;6.556;2023-02-16T05:09:33;102095.41;;;8.55;64.95
29359;BME280;16347;53.232;6.556;2023-02-16T05:12:03;102091.25;;;8.62;64.34
29359;BME280;16347;53.232;6.556;2023-02-16T05:14:48;102079.19;;;8.66;64.37
29359;BME280;16347;53.232;6.556;2023-02-16T05:17:18;102086.91;;;8.60;64.63
29359;BME280;16347;53.232;6.556;2023-02-16T05:19:48;102096.09;;;8.70;64.24
29359;BME280;16347;53.232;6.556;2023-02-16T05:22:17;102094.88;;;8.74;64.45
29359;BME280;16347;53.232;6.556;2023-02-16T05:24:45;102088.25;;;8.78;64.25
29359;BME280;16347;53.232;6.556;2023-02-16T05:27:16;102093.78;;;8.76;63.72
29359;BME280;16347;53.232;6.556;2023-02-16T05:29:45;102092.94;;;8.76;63.96
29359;BME280;16347;53.232;6.556;2023-02-16T05:32:13;102092.06;;;8.75;64.34
29359;BME280;16347;53.232;6.556;2023-02-16T05:34:42;102096.72;;;8.73;64.71
29359;BME280;16347;53.232;6.556;2023-02-16T05:37:11;102093.59;;;8.67;64.29
29359;BME280;16347;53.232;6.556;2023-02-16T05:39:39;102093.03;;;8.51;65.00
29359;BME280;16347;53.232;6.556;2023-02-16T05:42:07;102096.06;;;8.59;65.06
29359;BME280;16347;53.232;6.556;2023-02-16T05:44:37;102088.50;;;8.51;65.41
29359;BME280;16347;53.232;6.556;2023-02-16T05:47:05;102094.31;;;8.58;65.70
29359;BME280;16347;53.232;6.556;2023-02-16T05:49:33;102083.69;;;8.55;65.61
29359;BME280;16347;53.232;6.556;2023-02-16T05:52:01;102087.31;;;8.66;65.22
29359;BME280;16347;53.232;6.556;2023-02-16T05:54:29;102076.53;;;8.54;65.64
29359;BME280;16347;53.232;6.556;2023-02-16T05:56:57;102085.22;;;8.70;65.50
29359;BME280;16347;53.232;6.556;2023-02-16T05:59:25;102094.78;;;8.75;65.02
29359;BME280;16347;53.232;6.556;2023-02-16T06:01:55;102088.31;;;8.65;65.35
29359;BME280;16347;53.232;6.556;2023-02-16T06:04:23;102080.75;;;8.82;64.93
29359;BME280;16347;53.232;6.556;2023-02-16T06:06:51;102067.66;;;8.87;64.66
29359;BME280;16347;53.232;6.556;2023-02-16T06:09:19;102062.22;;;8.75;65.02
29359;BME280;16347;53.232;6.556;2023-02-16T06:11:47;102073.22;;;8.85;64.84
29359;BME280;16347;53.232;6.556;2023-02-16T06:14:17;102072.69;;;8.80;65.47
29359;BME280;16347;53.232;6.556;2023-02-16T06:16:47;102084.19;;;8.84;65.58
29359;BME280;16347;53.232;6.556;2023-02-16T06:19:18;102080.28;;;8.64;65.98
29359;BME280;16347;53.232;6.556;2023-02-16T06:21:46;102078.03;;;8.58;66.20
29359;BME280;16347;53.232;6.556;2023-02-16T06:24:17;102068.94;;;8.59;66.08
29359;BME280;16347;53.232;6.556;2023-02-16T06:26:45;102069.50;;;8.75;65.97
29359;BME280;16347;53.232;6.556;2023-02-16T06:29:13;102079.31;;;8.65;66.44
29359;BME280;16347;53.232;6.556;2023-02-16T06:31:41;102082.03;;;8.65;66.42
29359;BME280;16347;53.232;6.556;2023-02-16T06:34:09;102080.84;;;8.56;66.62
29359;BME280;16347;53.232;6.556;2023-02-16T06:36:38;102085.31;;;8.57;66.58
29359;BME280;16347;53.232;6.556;2023-02-16T06:39:08;102086.06;;;8.59;66.54
29359;BME280;16347;53.232;6.556;2023-02-16T06:41:37;102084.41;;;8.69;66.47
29359;BME280;16347;53.232;6.556;2023-02-16T06:44:07;102082.53;;;8.70;66.25
29359;BME280;16347;53.232;6.556;2023-02-16T06:46:38;102091.50;;;8.59;66.47
29359;BME280;16347;53.232;6.556;2023-02-16T06:49:06;102076.03;;;8.49;67.15
29359;BME280;16347;53.232;6.556;2023-02-16T06:51:34;102074.47;;;8.57;66.79
29359;BME280;16347;53.232;6.556;2023-02-16T06:54:04;102080.03;;;8.56;66.84
29359;BME280;16347;53.232;6.556;2023-02-16T06:56:32;102087.38;;;8.54;67.10
29359;BME280;16347;53.232;6.556;2023-02-16T06:59:03;102083.63;;;8.67;66.56
29359;BME280;16347;53.232;6.556;2023-02-16T07:01:32;102096.16;;;8.57;66.61
29359;BME280;16347;53.232;6.556;2023-02-16T07:04:00;102095.03;;;8.60;67.02
29359;BME280;16347;53.232;6.556;2023-02-16T07:06:29;102104.69;;;8.64;67.07
29359;BME280;16347;53.232;6.556;2023-02-16T07:08:58;102102.44;;;8.58;67.26
29359;BME280;16347;53.232;6.556;2023-02-16T07:11:27;102090.50;;;8.60;67.27
29359;BME280;16347;53.232;6.556;2023-02-16T07:13:55;102095.13;;;8.71;67.22
29359;BME280;16347;53.232;6.556;2023-02-16T07:16:24;102097.75;;;8.60;67.34
29359;BME280;16347;53.232;6.556;2023-02-16T07:18:52;102101.97;;;8.64;67.59
29359;BME280;16347;53.232;6.556;2023-02-16T07:21:20;102102.13;;;8.73;67.17
29359;BME280;16347;53.232;6.556;2023-02-16T07:23:49;102105.38;;;8.55;67.33
29359;BME280;16347;53.232;6.556;2023-02-16T07:26:17;102103.97;;;8.73;67.66
29359;BME280;16347;53.232;6.556;2023-02-16T07:28:47;102108.56;;;8.72;67.51
29359;BME280;16347;53.232;6.556;2023-02-16T07:31:16;102112.31;;;8.83;67.32
29359;BME280;16347;53.232;6.556;2023-02-16T07:33:44;102112.41;;;8.81;67.28
29359;BME280;16347;53.232;6.556;2023-02-16T07:36:13;102107.84;;;8.82;67.00
29359;BME280;16347;53.232;6.556;2023-02-16T07:38:41;102106.75;;;8.84;67.03
29359;BME280;16347;53.232;6.556;2023-02-16T07:41:09;102114.56;;;8.89;66.83
29359;BME280;16347;53.232;6.556;2023-02-16T07:43:38;102111.31;;;8.84;67.24
29359;BME280;16347;53.232;6.556;2023-02-16T07:46:10;102115.03;;;8.94;66.97
29359;BME280;16347;53.232;6.556;2023-02-16T07:48:38;102120.03;;;9.00;66.94
29359;BME280;16347;53.232;6.556;2023-02-16T07:51:06;102123.03;;;8.84;67.29
29359;BME280;16347;53.232;6.556;2023-02-16T07:53:34;102119.41;;;8.96;66.79
29359;BME280;16347;53.232;6.556;2023-02-16T07:56:03;102128.59;;;8.94;67.02
29359;BME280;16347;53.232;6.556;2023-02-16T07:58:31;102121.47;;;8.93;67.18
29359;BME280;16347;53.232;6.556;2023-02-16T08:01:06;102120.06;;;8.87;67.64
29359;BME280;16347;53.232;6.556;2023-02-16T08:03:37;102123.94;;;8.96;67.68
29359;BME280;16347;53.232;6.556;2023-02-16T08:06:06;102120.94;;;8.88;67.94
29359;BME280;16347;53.232;6.556;2023-02-16T08:08:35;102120.03;;;9.00;67.78
29359;BME280;16347;53.232;6.556;2023-02-16T08:11:08;102129.00;;;9.00;67.93
29359;BME280;16347;53.232;6.556;2023-02-16T08:13:36;102125.28;;;9.25;67.25
29359;BME280;16347;53.232;6.556;2023-02-16T08:16:08;102123.78;;;9.21;67.18
29359;BME280;16347;53.232;6.556;2023-02-16T08:18:38;102137.75;;;9.27;67.35
29359;BME280;16347;53.232;6.556;2023-02-16T08:21:09;102124.44;;;9.36;67.26
29359;BME280;16347;53.232;6.556;2023-02-16T08:23:41;102128.13;;;9.35;66.93
29359;BME280;16347;53.232;6.556;2023-02-16T08:26:14;102133.56;;;9.35;66.87
29359;BME280;16347;53.232;6.556;2023-02-16T08:28:43;102130.13;;;9.44;66.99
29359;BME280;16347;53.232;6.556;2023-02-16T08:31:13;102135.06;;;9.39;66.82
29359;BME280;16347;53.232;6.556;2023-02-16T08:33:44;102135.69;;;9.42;66.90
29359;BME280;16347;53.232;6.556;2023-02-16T08:36:17;102138.75;;;9.38;67.35
29359;BME280;16347;53.232;6.556;2023-02-16T08:38:45;102140.97;;;9.44;67.67
29359;BME280;16347;53.232;6.556;2023-02-16T08:41:16;102131.00;;;9.44;67.66
29359;BME280;16347;53.232;6.556;2023-02-16T08:43:44;102139.44;;;9.17;68.35
29359;BME280;16347;53.232;6.556;2023-02-16T08:46:12;102136.91;;;9.38;68.09
29359;BME280;16347;53.232;6.556;2023-02-16T08:48:41;102140.97;;;9.33;68.78
29359;BME280;16347;53.232;6.556;2023-02-16T08:51:14;102139.97;;;9.22;68.58
29359;BME280;16347;53.232;6.556;2023-02-16T08:53:44;102138.31;;;9.09;69.22
29359;BME280;16347;53.232;6.556;2023-02-16T08:56:13;102142.06;;;9.30;69.46
29359;BME280;16347;53.232;6.556;2023-02-16T08:58:42;102139.19;;;9.20;69.55
29359;BME280;16347;53.232;6.556;2023-02-16T09:01:11;102136.63;;;9.30;69.12
29359;BME280;16347;53.232;6.556;2023-02-16T09:03:42;102130.59;;;9.26;69.23
29359;BME280;16347;53.232;6.556;2023-02-16T09:06:13;102133.81;;;9.32;69.53
29359;BME280;16347;53.232;6.556;2023-02-16T09:08:42;102134.31;;;9.37;69.43
29359;BME280;16347;53.232;6.556;2023-02-16T09:11:14;102129.25;;;9.32;69.47
29359;BME280;16347;53.232;6.556;2023-02-16T09:13:42;102135.78;;;9.41;69.10
29359;BME280;16347;53.232;6.556;2023-02-16T09:16:12;102132.28;;;9.16;69.69
29359;BME280;16347;53.232;6.556;2023-02-16T09:18:41;102136.63;;;9.19;70.38
29359;BME280;16347;53.232;6.556;2023-02-16T09:21:14;102138.59;;;9.28;69.95
29359;BME280;16347;53.232;6.556;2023-02-16T09:23:44;102137.38;;;9.32;69.86
29359;BME280;16347;53.232;6.556;2023-02-16T09:26:14;102136.16;;;9.36;69.77
29359;BME280;16347;53.232;6.556;2023-02-16T09:28:43;102139.50;;;9.40;70.17
29359;BME280;16347;53.232;6.556;2023-02-16T09:31:14;102147.91;;;9.48;69.72
29359;BME280;16347;53.232;6.556;2023-02-16T09:33:42;102144.94;;;9.51;69.84
29359;BME280;16347;53.232;6.556;2023-02-16T09:36:12;102142.81;;;9.32;70.43
29359;BME280;16347;53.232;6.556;2023-02-16T09:38:41;102151.53;;;9.24;70.85
29359;BME280;16347;53.232;6.556;2023-02-16T09:41:25;102146.41;;;9.33;70.63
29359;BME280;16347;53.232;6.556;2023-02-16T09:43:57;102157.44;;;9.18;71.01
29359;BME280;16347;53.232;6.556;2023-02-16T09:46:28;102167.50;;;9.40;70.92
29359;BME280;16347;53.232;6.556;2023-02-16T09:48:57;102156.88;;;9.37;70.95
29359;BME280;16347;53.232;6.556;2023-02-16T09:51:33;102153.72;;;9.54;70.33
29359;BME280;16347;53.232;6.556;2023-02-16T09:54:14;102165.09;;;9.59;70.21
29359;BME280;16347;53.232;6.556;2023-02-16T09:56:53;102177.53;;;9.51;70.08
29359;BME280;16347;53.232;6.556;2023-02-16T09:59:39;102165.47;;;9.66;70.50
29359;BME280;16347;53.232;6.556;2023-02-16T10:02:25;102168.78;;;9.58;70.38
29359;BME280;16347;53.232;6.556;2023-02-16T10:05:11;102172.41;;;9.81;69.79
29359;BME280;16347;53.232;6.556;2023-02-16T10:07:53;102171.03;;;9.53;70.83
29359;BME280;16347;53.232;6.556;2023-02-16T10:10:26;102170.44;;;9.72;70.57
29359;BME280;16347;53.232;6.556;2023-02-16T10:13:01;102166.84;;;9.71;70.22
29359;BME280;16347;53.232;6.556;2023-02-16T10:15:32;102166.47;;;9.76;70.14
29359;BME280;16347;53.232;6.556;2023-02-16T10:18:04;102159.81;;;9.69;69.87
29359;BME280;16347;53.232;6.556;2023-02-16T10:20:36;102158.69;;;9.71;70.07
29359;BME280;16347;53.232;6.556;2023-02-16T10:23:14;102149.53;;;9.61;70.70
29359;BME280;16347;53.232;6.556;2023-02-16T10:25:53;102137.19;;;9.57;70.97
29359;BME280;16347;53.232;6.556;2023-02-16T10:28:31;102142.84;;;9.54;71.14
29359;BME280;16347;53.232;6.556;2023-02-16T10:31:12;102130.28;;;9.53;71.70
29359;BME280;16347;53.232;6.556;2023-02-16T10:33:43;102135.59;;;9.77;71.28
29359;BME280;16347;53.232;6.556;2023-02-16T10:36:21;102147.47;;;9.87;70.51
29359;BME280;16347;53.232;6.556;2023-02-16T10:39:02;102165.09;;;9.70;70.88
29359;BME280;16347;53.232;6.556;2023-02-16T10:41:36;102182.03;;;9.74;71.45
29359;BME280;16347;53.232;6.556;2023-02-16T10:44:11;102176.19;;;9.56;71.96
29359;BME280;16347;53.232;6.556;2023-02-16T10:46:45;102183.97;;;9.50;72.40
29359;BME280;16347;53.232;6.556;2023-02-16T10:49:15;102184.28;;;9.80;71.57
29359;BME280;16347;53.232;6.556;2023-02-16T10:51:46;102181.78;;;9.77;71.70
29359;BME280;16347;53.232;6.556;2023-02-16T10:54:20;102192.25;;;9.70;71.86
29359;BME280;16347;53.232;6.556;2023-02-16T10:56:51;102199.69;;;9.79;71.71
29359;BME280;16347;53.232;6.556;2023-02-16T10:59:21;102192.63;;;9.77;71.96
29359;BME280;16347;53.232;6.556;2023-02-16T11:01:51;102189.56;;;9.82;71.50
29359;BME280;16347;53.232;6.556;2023-02-16T11:04:35;102178.34;;;9.86;71.85
29359;BME280;16347;53.232;6.556;2023-02-16T11:07:06;102183.66;;;9.88;71.72
29359;BME280;16347;53.232;6.556;2023-02-16T11:09:37;102179.59;;;9.93;71.64
29359;BME280;16347;53.232;6.556;2023-02-16T11:12:25;102188.22;;;9.87;72.21
29359;BME280;16347;53.232;6.556;2023-02-16T11:14:57;102184.41;;;9.90;72.28
29359;BME280;16347;53.232;6.556;2023-02-16T11:17:27;102187.84;;;9.92;71.79
29359;BME280;16347;53.232;6.556;2023-02-16T11:19:57;102194.91;;;9.83;72.62
29359;BME280;16347;53.232;6.556;2023-02-16T11:22:30;102191.31;;;10.05;72.22
29359;BME280;16347;53.232;6.556;2023-02-16T11:25:27;102196.28;;;10.00;72.35
29359;BME280;16347;53.232;6.556;2023-02-16T11:27:57;102175.25;;;10.02;71.63
29359;BME280;16347;53.232;6.556;2023-02-16T11:30:31;102169.22;;;10.09;72.14
29359;BME280;16347;53.232;6.556;2023-02-16T11:33:03;102167.63;;;10.07;71.88
29359;BME280;16347;53.232;6.556;2023-02-16T11:35:41;102161.59;;;10.14;71.80
29359;BME280;16347;53.232;6.556;2023-02-16T11:38:25;102164.91;;;10.18;71.89
29359;BME280;16347;53.232;6.556;2023-02-16T11:40:56;102158.59;;;10.06;72.07
29359;BME280;16347;53.232;6.556;2023-02-16T11:43:26;102162.56;;;10.02;72.09
29359;BME280;16347;53.232;6.556;2023-02-16T11:45:58;102161.47;;;10.16;72.16
29359;BME280;16347;53.232;6.556;2023-02-16T11:48:29;102148.13;;;10.24;72.30
29359;BME280;16347;53.232;6.556;2023-02-16T11:51:00;102139.44;;;10.08;72.73
29359;BME280;16347;53.232;6.556;2023-02-16T11:53:31;102140.34;;;10.19;72.51
29359;BME280;16347;53.232;6.556;2023-02-16T11:56:28;102139.47;;;10.30;72.74
29359;BME280;16347;53.232;6.556;2023-02-16T11:59:13;102126.63;;;10.21;73.08
29359;BME280;16347;53.232;6.556;2023-02-16T12:01:52;102129.19;;;10.11;73.60
29359;BME280;16347;53.232;6.556;2023-02-16T12:04:41;102113.63;;;10.13;73.96
29359;BME280;16347;53.232;6.556;2023-02-16T12:07:22;102119.06;;;10.13;74.13
29359;BME280;16347;53.232;6.556;2023-02-16T12:10:02;102106.97;;;10.17;74.17
29359;BME280;16347;53.232;6.556;2023-02-16T12:12:41;102101.78;;;10.14;74.29
29359;BME280;16347;53.232;6.556;2023-02-16T12:15:20;102101.91;;;10.02;74.49
29359;BME280;16347;53.232;6.556;2023-02-16T12:18:07;102093.84;;;10.11;74.33
29359;BME280;16347;53.232;6.556;2023-02-16T12:20:47;102080.56;;;9.86;75.59
29359;BME280;16347;53.232;6.556;2023-02-16T12:23:27;102078.69;;;10.09;75.30
29359;BME280;16347;53.232;6.556;2023-02-16T12:26:12;102085.09;;;10.30;74.20
29359;BME280;16347;53.232;6.556;2023-02-16T12:28:48;102083.72;;;10.36;74.15
29359;BME280;16347;53.232;6.556;2023-02-16T12:31:21;102093.16;;;10.20;74.06
29359;BME280;16347;53.232;6.556;2023-02-16T12:33:56;102084.66;;;10.14;74.39
29359;BME280;16347;53.232;6.556;2023-02-16T12:36:43;102091.78;;;10.26;73.96
29359;BME280;16347;53.232;6.556;2023-02-16T12:39:17;102084.25;;;10.18;74.25
29359;BME280;16347;53.232;6.556;2023-02-16T12:41:57;102074.84;;;10.22;73.86
29359;BME280;16347;53.232;6.556;2023-02-16T12:44:32;102073.47;;;10.28;73.81
29359;BME280;16347;53.232;6.556;2023-02-16T12:47:04;102073.69;;;10.47;72.68
29359;BME280;16347;53.232;6.556;2023-02-16T12:49:43;102073.34;;;10.41;72.95
29359;BME280;16347;53.232;6.556;2023-02-16T12:52:23;102070.31;;;10.55;72.10
29359;BME280;16347;53.232;6.556;2023-02-16T12:54:59;102065.06;;;10.74;71.93
29359;BME280;16347;53.232;6.556;2023-02-16T12:57:30;102064.09;;;10.96;71.17
29359;BME280;16347;53.232;6.556;2023-02-16T13:00:03;102053.53;;;11.02;70.25
29359;BME280;16347;53.232;6.556;2023-02-16T13:02:40;102053.53;;;11.02;69.43
29359;BME280;16347;53.232;6.556;2023-02-16T13:05:13;102044.31;;;11.14;68.98
29359;BME280;16347;53.232;6.556;2023-02-16T13:07:46;102047.09;;;11.03;68.82
29359;BME280;16347;53.232;6.556;2023-02-16T13:10:19;102038.59;;;11.17;68.51
29359;BME280;16347;53.232;6.556;2023-02-16T13:12:54;102028.91;;;11.24;68.79
29359;BME280;16347;53.232;6.556;2023-02-16T13:15:32;102035.88;;;11.17;68.19
29359;BME280;16347;53.232;6.556;2023-02-16T13:18:05;102026.78;;;11.07;68.51
29359;BME280;16347;53.232;6.556;2023-02-16T13:20:38;102016.94;;;11.16;68.10
29359;BME280;16347;53.232;6.556;2023-02-16T13:23:43;102023.50;;;11.34;67.69
29359;BME280;16347;53.232;6.556;2023-02-16T13:26:29;102019.25;;;11.41;67.46
29359;BME280;16347;53.232;6.556;2023-02-16T13:32:03;102015.03;;;11.27;67.26
29359;BME280;16347;53.232;6.556;2023-02-16T13:35:07;102006.16;;;11.35;66.40
29359;BME280;16347;53.232;6.556;2023-02-16T13:38:00;102004.22;;;11.47;65.91